Wilkes Barre Scranton International Airport
KAVP : rendu visible

Aérodrome :











RETROUVEZ-NOUS SUR...

 
LOGIN :

S'inscrire | Disclaimer

   EN    FR    IT 

 









Légende :    VFR   VFR Marginal   IFR   IFR Intensif   IFR Très Intensif
Visi : 
Plafond : 
>= 8 km
>= 3000ft
5 à 8 km
1000 à 3000 ft
1500m à 5 km
500 à 1000 ft
800 à 1500m
200 à 500 ft
< 800m
< 200 ft
Symboles :   Orages  Brouillard  Fortes neiges  Fortes précipitations  Vent > 20 kt






- Altitude de l'aérodrome : 962 ft
- Code IATA : AVP


KAVP - Wilkes Barre Scranton International

DERNIER METAR :
  • 040154Z 01008KT 10SM OVC013 07/04 A2992 RMK AO2 RAE0055 SLP136 P0000 T00720039

METARs EXPIRÉS :
  • 040110Z 35006KT 10SM OVC014 07/04 A2992 RMK AO2 RAE0055 P0000 T00720039
  • 040054Z 36008KT 10SM -RA OVC018 07/04 A2991 RMK AO2 SLP131 P0001 T00720039
  • 032354Z 34013G20KT 10SM -RA FEW017 BKN024 OVC035 08/04 A2989 RMK AO2 SLP124 P0001 60001 T00780039 10094 20078 51020

TAF KAVP
Valide du 04 à 00h jusqu'au 05 à 00h UTC


032322Z 0400/0424 34008KT P6SM OVC015
FM040900 VRB03KT P6SM OVC012
FM042000 VRB03KT P6SM BKN060



MET'MAP, la Météo Aéronautique d'un coup d'oeil ! - Copyright ORBIFLY Décembre 2007 - Disclaimer

ORBIFLY MET'MAP TEAM :

Programmation & Développement : Alexandra Zaïnal
Sur une idée originale de : Baudouin d'Aumeries
Assistance à la programmation : Marc-Olivier Méhu
Soutien technique & logistique : Manuel Goepfert

Contact : metmap@orbifly.com




SOURCES & CREDITS :

   NOAA       Earth
Advisory